sensor_id;sensor_type;location;lat;lon;timestamp;P1;durP1;ratioP1;P2;durP2;ratioP2
19814;SDS011;10067;53.092;8.800;2023-11-21T00:02:23;41.92;;;17.98;;
19814;SDS011;10067;53.092;8.800;2023-11-21T00:04:49;44.90;;;17.35;;
19814;SDS011;10067;53.092;8.800;2023-11-21T00:07:15;43.45;;;17.50;;
19814;SDS011;10067;53.092;8.800;2023-11-21T00:09:42;43.13;;;17.52;;
19814;SDS011;10067;53.092;8.800;2023-11-21T00:12:08;44.20;;;17.75;;
19814;SDS011;10067;53.092;8.800;2023-11-21T00:14:35;41.17;;;17.40;;
19814;SDS011;10067;53.092;8.800;2023-11-21T00:17:03;45.17;;;17.98;;
19814;SDS011;10067;53.092;8.800;2023-11-21T00:19:30;44.42;;;17.75;;
19814;SDS011;10067;53.092;8.800;2023-11-21T00:21:56;46.65;;;17.08;;
19814;SDS011;10067;53.092;8.800;2023-11-21T00:24:23;46.72;;;19.08;;
19814;SDS011;10067;53.092;8.800;2023-11-21T00:26:50;43.15;;;17.13;;
19814;SDS011;10067;53.092;8.800;2023-11-21T00:29:16;38.85;;;17.67;;
19814;SDS011;10067;53.092;8.800;2023-11-21T00:31:43;37.40;;;17.90;;
19814;SDS011;10067;53.092;8.800;2023-11-21T00:34:12;44.50;;;17.30;;
19814;SDS011;10067;53.092;8.800;2023-11-21T00:36:38;45.88;;;18.85;;
19814;SDS011;10067;53.092;8.800;2023-11-21T00:39:05;51.30;;;18.67;;
19814;SDS011;10067;53.092;8.800;2023-11-21T00:41:32;48.58;;;18.48;;
19814;SDS011;10067;53.092;8.800;2023-11-21T00:43:58;45.90;;;18.65;;
19814;SDS011;10067;53.092;8.800;2023-11-21T00:46:26;47.10;;;18.35;;
19814;SDS011;10067;53.092;8.800;2023-11-21T00:48:54;49.38;;;18.95;;
19814;SDS011;10067;53.092;8.800;2023-11-21T00:51:21;42.53;;;17.33;;
19814;SDS011;10067;53.092;8.800;2023-11-21T00:53:48;48.75;;;18.70;;
19814;SDS011;10067;53.092;8.800;2023-11-21T00:56:14;46.97;;;19.17;;
19814;SDS011;10067;53.092;8.800;2023-11-21T00:58:41;50.63;;;19.65;;
19814;SDS011;10067;53.092;8.800;2023-11-21T01:01:08;54.85;;;19.38;;
19814;SDS011;10067;53.092;8.800;2023-11-21T01:03:35;47.47;;;20.23;;
19814;SDS011;10067;53.092;8.800;2023-11-21T01:06:01;50.67;;;20.25;;
19814;SDS011;10067;53.092;8.800;2023-11-21T01:08:29;50.70;;;19.73;;
19814;SDS011;10067;53.092;8.800;2023-11-21T01:10:56;63.53;;;24.30;;
19814;SDS011;10067;53.092;8.800;2023-11-21T01:13:22;53.50;;;22.98;;
19814;SDS011;10067;53.092;8.800;2023-11-21T01:15:52;50.75;;;22.08;;
19814;SDS011;10067;53.092;8.800;2023-11-21T01:18:19;53.13;;;22.23;;
19814;SDS011;10067;53.092;8.800;2023-11-21T01:20:45;48.90;;;23.55;;
19814;SDS011;10067;53.092;8.800;2023-11-21T01:23:12;55.42;;;22.65;;
19814;SDS011;10067;53.092;8.800;2023-11-21T01:25:39;62.67;;;24.27;;
19814;SDS011;10067;53.092;8.800;2023-11-21T01:28:06;53.33;;;24.65;;
19814;SDS011;10067;53.092;8.800;2023-11-21T01:30:32;53.33;;;24.33;;
19814;SDS011;10067;53.092;8.800;2023-11-21T01:32:58;55.60;;;25.33;;
19814;SDS011;10067;53.092;8.800;2023-11-21T01:35:25;57.78;;;26.20;;
19814;SDS011;10067;53.092;8.800;2023-11-21T01:37:51;46.08;;;25.30;;
19814;SDS011;10067;53.092;8.800;2023-11-21T01:40:18;54.35;;;25.05;;
19814;SDS011;10067;53.092;8.800;2023-11-21T01:42:47;54.80;;;24.92;;
19814;SDS011;10067;53.092;8.800;2023-11-21T01:45:14;54.00;;;24.85;;
19814;SDS011;10067;53.092;8.800;2023-11-21T01:47:40;47.92;;;21.50;;
19814;SDS011;10067;53.092;8.800;2023-11-21T01:50:08;45.08;;;20.88;;
19814;SDS011;10067;53.092;8.800;2023-11-21T01:52:39;38.88;;;20.00;;
19814;SDS011;10067;53.092;8.800;2023-11-21T01:55:06;43.45;;;19.77;;
19814;SDS011;10067;53.092;8.800;2023-11-21T01:57:33;43.05;;;19.63;;
19814;SDS011;10067;53.092;8.800;2023-11-21T02:00:04;46.80;;;20.08;;
19814;SDS011;10067;53.092;8.800;2023-11-21T02:02:40;41.30;;;21.17;;
19814;SDS011;10067;53.092;8.800;2023-11-21T02:05:07;38.65;;;19.85;;
19814;SDS011;10067;53.092;8.800;2023-11-21T02:07:33;45.05;;;20.70;;
19814;SDS011;10067;53.092;8.800;2023-11-21T02:10:00;44.75;;;21.42;;
19814;SDS011;10067;53.092;8.800;2023-11-21T02:12:26;43.20;;;20.95;;
19814;SDS011;10067;53.092;8.800;2023-11-21T02:14:53;43.03;;;21.73;;
19814;SDS011;10067;53.092;8.800;2023-11-21T02:17:20;38.75;;;21.55;;
19814;SDS011;10067;53.092;8.800;2023-11-21T02:19:51;43.58;;;21.63;;
19814;SDS011;10067;53.092;8.800;2023-11-21T02:22:18;39.72;;;21.88;;
19814;SDS011;10067;53.092;8.800;2023-11-21T02:24:46;43.25;;;21.55;;
19814;SDS011;10067;53.092;8.800;2023-11-21T02:27:13;42.45;;;22.63;;
19814;SDS011;10067;53.092;8.800;2023-11-21T02:29:42;38.55;;;20.85;;
19814;SDS011;10067;53.092;8.800;2023-11-21T02:32:08;40.63;;;20.35;;
19814;SDS011;10067;53.092;8.800;2023-11-21T02:34:35;40.08;;;21.65;;
19814;SDS011;10067;53.092;8.800;2023-11-21T02:37:03;34.65;;;19.85;;
19814;SDS011;10067;53.092;8.800;2023-11-21T02:39:30;34.60;;;19.70;;
19814;SDS011;10067;53.092;8.800;2023-11-21T02:41:58;34.03;;;18.63;;
19814;SDS011;10067;53.092;8.800;2023-11-21T02:44:25;32.13;;;18.88;;
19814;SDS011;10067;53.092;8.800;2023-11-21T02:46:51;30.55;;;18.33;;
19814;SDS011;10067;53.092;8.800;2023-11-21T02:49:18;31.70;;;18.52;;
19814;SDS011;10067;53.092;8.800;2023-11-21T02:51:44;30.75;;;18.08;;
19814;SDS011;10067;53.092;8.800;2023-11-21T02:54:10;31.67;;;19.33;;
19814;SDS011;10067;53.092;8.800;2023-11-21T02:56:37;36.30;;;19.88;;
19814;SDS011;10067;53.092;8.800;2023-11-21T02:59:06;37.42;;;19.83;;
19814;SDS011;10067;53.092;8.800;2023-11-21T03:01:32;36.03;;;20.02;;
19814;SDS011;10067;53.092;8.800;2023-11-21T03:03:59;40.72;;;21.10;;
19814;SDS011;10067;53.092;8.800;2023-11-21T03:06:25;38.67;;;20.40;;
19814;SDS011;10067;53.092;8.800;2023-11-21T03:08:51;42.47;;;21.95;;
19814;SDS011;10067;53.092;8.800;2023-11-21T03:11:18;50.28;;;24.88;;
19814;SDS011;10067;53.092;8.800;2023-11-21T03:13:44;49.75;;;26.58;;
19814;SDS011;10067;53.092;8.800;2023-11-21T03:16:12;50.95;;;26.00;;
19814;SDS011;10067;53.092;8.800;2023-11-21T03:18:39;49.63;;;24.05;;
19814;SDS011;10067;53.092;8.800;2023-11-21T03:21:05;50.58;;;25.95;;
19814;SDS011;10067;53.092;8.800;2023-11-21T03:23:33;51.60;;;25.80;;
19814;SDS011;10067;53.092;8.800;2023-11-21T03:26:00;51.45;;;26.33;;
19814;SDS011;10067;53.092;8.800;2023-11-21T03:28:26;54.92;;;26.88;;
19814;SDS011;10067;53.092;8.800;2023-11-21T03:30:53;57.33;;;26.73;;
19814;SDS011;10067;53.092;8.800;2023-11-21T03:33:21;56.65;;;26.92;;
19814;SDS011;10067;53.092;8.800;2023-11-21T03:35:47;56.83;;;27.45;;
19814;SDS011;10067;53.092;8.800;2023-11-21T03:38:14;57.15;;;26.20;;
19814;SDS011;10067;53.092;8.800;2023-11-21T03:40:41;59.85;;;26.95;;
19814;SDS011;10067;53.092;8.800;2023-11-21T03:43:07;54.53;;;29.17;;
19814;SDS011;10067;53.092;8.800;2023-11-21T03:45:33;65.45;;;30.73;;
19814;SDS011;10067;53.092;8.800;2023-11-21T03:48:00;67.15;;;30.05;;
19814;SDS011;10067;53.092;8.800;2023-11-21T03:50:28;62.85;;;30.13;;
19814;SDS011;10067;53.092;8.800;2023-11-21T03:52:55;68.78;;;31.20;;
19814;SDS011;10067;53.092;8.800;2023-11-21T03:55:21;67.30;;;32.25;;
19814;SDS011;10067;53.092;8.800;2023-11-21T03:57:48;69.90;;;32.90;;
19814;SDS011;10067;53.092;8.800;2023-11-21T04:00:15;65.93;;;31.90;;
19814;SDS011;10067;53.092;8.800;2023-11-21T04:02:42;72.93;;;34.35;;
19814;SDS011;10067;53.092;8.800;2023-11-21T04:05:08;74.30;;;34.63;;
19814;SDS011;10067;53.092;8.800;2023-11-21T04:07:36;70.72;;;33.35;;
19814;SDS011;10067;53.092;8.800;2023-11-21T04:10:03;67.40;;;33.85;;
19814;SDS011;10067;53.092;8.800;2023-11-21T04:12:32;71.82;;;33.75;;
19814;SDS011;10067;53.092;8.800;2023-11-21T04:14:59;72.05;;;35.55;;
19814;SDS011;10067;53.092;8.800;2023-11-21T04:17:25;65.63;;;34.97;;
19814;SDS011;10067;53.092;8.800;2023-11-21T04:19:51;70.93;;;36.33;;
19814;SDS011;10067;53.092;8.800;2023-11-21T04:22:18;67.15;;;38.53;;
19814;SDS011;10067;53.092;8.800;2023-11-21T04:24:45;72.25;;;38.20;;
19814;SDS011;10067;53.092;8.800;2023-11-21T04:27:12;65.95;;;38.33;;
19814;SDS011;10067;53.092;8.800;2023-11-21T04:29:39;67.95;;;37.00;;
19814;SDS011;10067;53.092;8.800;2023-11-21T04:32:06;67.40;;;37.42;;
19814;SDS011;10067;53.092;8.800;2023-11-21T04:34:33;62.92;;;35.85;;
19814;SDS011;10067;53.092;8.800;2023-11-21T04:36:59;64.68;;;37.63;;
19814;SDS011;10067;53.092;8.800;2023-11-21T04:39:26;64.85;;;36.13;;
19814;SDS011;10067;53.092;8.800;2023-11-21T04:41:54;60.67;;;34.28;;
19814;SDS011;10067;53.092;8.800;2023-11-21T04:44:20;52.53;;;32.78;;
19814;SDS011;10067;53.092;8.800;2023-11-21T04:46:46;49.58;;;30.27;;
19814;SDS011;10067;53.092;8.800;2023-11-21T04:49:13;45.63;;;27.90;;
19814;SDS011;10067;53.092;8.800;2023-11-21T04:51:40;40.72;;;25.08;;
19814;SDS011;10067;53.092;8.800;2023-11-21T04:54:06;38.38;;;25.02;;
19814;SDS011;10067;53.092;8.800;2023-11-21T04:56:32;38.13;;;25.33;;
19814;SDS011;10067;53.092;8.800;2023-11-21T04:59:00;35.55;;;24.95;;
19814;SDS011;10067;53.092;8.800;2023-11-21T05:01:27;39.03;;;23.40;;
19814;SDS011;10067;53.092;8.800;2023-11-21T05:03:53;38.63;;;23.92;;
19814;SDS011;10067;53.092;8.800;2023-11-21T05:06:20;37.03;;;23.98;;
19814;SDS011;10067;53.092;8.800;2023-11-21T05:08:46;43.28;;;26.70;;
19814;SDS011;10067;53.092;8.800;2023-11-21T05:11:22;40.92;;;26.05;;
19814;SDS011;10067;53.092;8.800;2023-11-21T05:13:49;40.13;;;26.02;;
19814;SDS011;10067;53.092;8.800;2023-11-21T05:16:16;39.92;;;24.08;;
19814;SDS011;10067;53.092;8.800;2023-11-21T05:18:43;35.38;;;23.77;;
19814;SDS011;10067;53.092;8.800;2023-11-21T05:21:09;35.70;;;22.13;;
19814;SDS011;10067;53.092;8.800;2023-11-21T05:23:36;27.67;;;18.65;;
19814;SDS011;10067;53.092;8.800;2023-11-21T05:26:02;31.02;;;19.35;;
19814;SDS011;10067;53.092;8.800;2023-11-21T05:28:29;29.85;;;19.63;;
19814;SDS011;10067;53.092;8.800;2023-11-21T05:30:55;35.88;;;21.65;;
19814;SDS011;10067;53.092;8.800;2023-11-21T05:33:23;30.73;;;21.67;;
19814;SDS011;10067;53.092;8.800;2023-11-21T05:35:50;26.42;;;17.00;;
19814;SDS011;10067;53.092;8.800;2023-11-21T05:38:16;22.42;;;16.13;;
19814;SDS011;10067;53.092;8.800;2023-11-21T05:40:43;25.90;;;15.20;;
19814;SDS011;10067;53.092;8.800;2023-11-21T05:43:09;20.42;;;15.00;;
19814;SDS011;10067;53.092;8.800;2023-11-21T05:45:37;17.08;;;12.75;;
19814;SDS011;10067;53.092;8.800;2023-11-21T05:48:03;16.38;;;11.95;;
19814;SDS011;10067;53.092;8.800;2023-11-21T05:50:31;14.70;;;11.15;;
19814;SDS011;10067;53.092;8.800;2023-11-21T05:52:57;14.15;;;11.10;;
19814;SDS011;10067;53.092;8.800;2023-11-21T05:55:25;16.95;;;11.48;;
19814;SDS011;10067;53.092;8.800;2023-11-21T05:57:52;17.35;;;11.73;;
19814;SDS011;10067;53.092;8.800;2023-11-21T06:00:18;15.70;;;11.18;;
19814;SDS011;10067;53.092;8.800;2023-11-21T06:02:45;13.75;;;10.63;;
19814;SDS011;10067;53.092;8.800;2023-11-21T06:05:11;15.35;;;11.20;;
19814;SDS011;10067;53.092;8.800;2023-11-21T06:07:39;15.73;;;11.77;;
19814;SDS011;10067;53.092;8.800;2023-11-21T06:10:07;16.95;;;11.32;;
19814;SDS011;10067;53.092;8.800;2023-11-21T06:12:36;16.25;;;11.20;;
19814;SDS011;10067;53.092;8.800;2023-11-21T06:15:03;14.57;;;10.88;;
19814;SDS011;10067;53.092;8.800;2023-11-21T06:17:30;16.27;;;10.63;;
19814;SDS011;10067;53.092;8.800;2023-11-21T06:19:57;14.48;;;11.57;;
19814;SDS011;10067;53.092;8.800;2023-11-21T06:22:23;16.33;;;11.77;;
19814;SDS011;10067;53.092;8.800;2023-11-21T06:24:51;13.93;;;10.55;;
19814;SDS011;10067;53.092;8.800;2023-11-21T06:27:17;15.60;;;11.07;;
19814;SDS011;10067;53.092;8.800;2023-11-21T06:29:43;16.42;;;11.40;;
19814;SDS011;10067;53.092;8.800;2023-11-21T06:32:10;14.52;;;10.55;;
19814;SDS011;10067;53.092;8.800;2023-11-21T06:34:36;15.80;;;12.00;;
19814;SDS011;10067;53.092;8.800;2023-11-21T06:37:03;16.45;;;12.00;;
19814;SDS011;10067;53.092;8.800;2023-11-21T06:39:29;18.30;;;11.98;;
19814;SDS011;10067;53.092;8.800;2023-11-21T06:41:57;19.17;;;12.27;;
19814;SDS011;10067;53.092;8.800;2023-11-21T06:44:25;17.52;;;12.07;;
19814;SDS011;10067;53.092;8.800;2023-11-21T06:46:51;17.05;;;12.63;;
19814;SDS011;10067;53.092;8.800;2023-11-21T06:49:18;17.10;;;12.75;;
19814;SDS011;10067;53.092;8.800;2023-11-21T06:51:44;16.25;;;12.65;;
19814;SDS011;10067;53.092;8.800;2023-11-21T06:54:10;19.88;;;13.18;;
19814;SDS011;10067;53.092;8.800;2023-11-21T06:56:37;19.67;;;13.50;;
19814;SDS011;10067;53.092;8.800;2023-11-21T06:59:05;16.83;;;12.50;;
19814;SDS011;10067;53.092;8.800;2023-11-21T07:01:31;19.00;;;12.57;;
19814;SDS011;10067;53.092;8.800;2023-11-21T07:04:04;18.00;;;13.32;;
19814;SDS011;10067;53.092;8.800;2023-11-21T07:06:30;19.48;;;14.15;;
19814;SDS011;10067;53.092;8.800;2023-11-21T07:08:56;17.45;;;13.27;;
19814;SDS011;10067;53.092;8.800;2023-11-21T07:11:23;19.00;;;13.73;;
19814;SDS011;10067;53.092;8.800;2023-11-21T07:13:50;22.40;;;13.55;;
19814;SDS011;10067;53.092;8.800;2023-11-21T07:16:18;19.67;;;13.15;;
19814;SDS011;10067;53.092;8.800;2023-11-21T07:18:45;18.35;;;13.30;;
19814;SDS011;10067;53.092;8.800;2023-11-21T07:21:11;16.17;;;12.45;;
19814;SDS011;10067;53.092;8.800;2023-11-21T07:23:38;18.20;;;13.40;;
19814;SDS011;10067;53.092;8.800;2023-11-21T07:26:04;20.10;;;14.25;;
19814;SDS011;10067;53.092;8.800;2023-11-21T07:28:34;18.05;;;13.40;;
19814;SDS011;10067;53.092;8.800;2023-11-21T07:31:00;18.70;;;13.32;;
19814;SDS011;10067;53.092;8.800;2023-11-21T07:33:28;18.00;;;13.43;;
19814;SDS011;10067;53.092;8.800;2023-11-21T07:35:55;19.05;;;14.32;;
19814;SDS011;10067;53.092;8.800;2023-11-21T07:38:21;20.48;;;13.98;;
19814;SDS011;10067;53.092;8.800;2023-11-21T07:40:48;19.20;;;14.63;;
19814;SDS011;10067;53.092;8.800;2023-11-21T07:43:14;24.23;;;15.25;;
19814;SDS011;10067;53.092;8.800;2023-11-21T07:45:41;20.30;;;14.05;;
19814;SDS011;10067;53.092;8.800;2023-11-21T07:48:07;23.77;;;15.27;;
19814;SDS011;10067;53.092;8.800;2023-11-21T07:50:36;25.38;;;16.23;;
19814;SDS011;10067;53.092;8.800;2023-11-21T07:53:03;18.70;;;13.57;;
19814;SDS011;10067;53.092;8.800;2023-11-21T07:55:30;24.60;;;15.60;;
19814;SDS011;10067;53.092;8.800;2023-11-21T07:57:57;22.77;;;13.73;;
19814;SDS011;10067;53.092;8.800;2023-11-21T08:00:24;19.42;;;14.57;;
19814;SDS011;10067;53.092;8.800;2023-11-21T08:02:55;18.83;;;14.55;;
19814;SDS011;10067;53.092;8.800;2023-11-21T08:05:21;20.55;;;14.68;;
19814;SDS011;10067;53.092;8.800;2023-11-21T08:07:49;22.63;;;14.88;;
19814;SDS011;10067;53.092;8.800;2023-11-21T08:10:15;19.33;;;14.10;;
19814;SDS011;10067;53.092;8.800;2023-11-21T08:12:42;24.00;;;15.10;;
19814;SDS011;10067;53.092;8.800;2023-11-21T08:15:09;18.80;;;14.48;;
19814;SDS011;10067;53.092;8.800;2023-11-21T08:17:35;20.98;;;14.82;;
19814;SDS011;10067;53.092;8.800;2023-11-21T08:20:02;25.08;;;14.27;;
19814;SDS011;10067;53.092;8.800;2023-11-21T08:22:28;25.48;;;15.45;;
19814;SDS011;10067;53.092;8.800;2023-11-21T08:24:57;25.83;;;16.98;;
19814;SDS011;10067;53.092;8.800;2023-11-21T08:27:23;22.50;;;15.63;;
19814;SDS011;10067;53.092;8.800;2023-11-21T08:29:49;31.70;;;16.85;;
19814;SDS011;10067;53.092;8.800;2023-11-21T08:32:17;23.27;;;15.07;;
19814;SDS011;10067;53.092;8.800;2023-11-21T08:34:44;20.90;;;13.82;;
19814;SDS011;10067;53.092;8.800;2023-11-21T08:37:10;21.50;;;15.55;;
19814;SDS011;10067;53.092;8.800;2023-11-21T08:39:37;21.85;;;15.10;;
19814;SDS011;10067;53.092;8.800;2023-11-21T08:42:05;27.08;;;17.38;;
19814;SDS011;10067;53.092;8.800;2023-11-21T08:44:31;84.55;;;39.60;;
19814;SDS011;10067;53.092;8.800;2023-11-21T08:46:58;46.83;;;26.00;;
19814;SDS011;10067;53.092;8.800;2023-11-21T08:49:24;35.47;;;22.27;;
19814;SDS011;10067;53.092;8.800;2023-11-21T08:51:52;23.70;;;15.82;;
19814;SDS011;10067;53.092;8.800;2023-11-21T08:54:20;31.58;;;21.60;;
19814;SDS011;10067;53.092;8.800;2023-11-21T08:56:46;28.40;;;18.90;;
19814;SDS011;10067;53.092;8.800;2023-11-21T08:59:14;21.02;;;15.48;;
19814;SDS011;10067;53.092;8.800;2023-11-21T09:01:41;57.80;;;32.28;;
19814;SDS011;10067;53.092;8.800;2023-11-21T09:04:07;48.38;;;27.67;;
19814;SDS011;10067;53.092;8.800;2023-11-21T09:06:34;37.10;;;21.55;;
19814;SDS011;10067;53.092;8.800;2023-11-21T09:09:01;25.95;;;18.83;;
19814;SDS011;10067;53.092;8.800;2023-11-21T09:11:30;28.40;;;17.42;;
19814;SDS011;10067;53.092;8.800;2023-11-21T09:13:58;21.50;;;14.73;;
19814;SDS011;10067;53.092;8.800;2023-11-21T09:16:26;22.63;;;16.15;;
19814;SDS011;10067;53.092;8.800;2023-11-21T09:18:53;20.85;;;15.02;;
19814;SDS011;10067;53.092;8.800;2023-11-21T09:21:19;20.40;;;14.68;;
19814;SDS011;10067;53.092;8.800;2023-11-21T09:23:45;23.20;;;15.60;;
19814;SDS011;10067;53.092;8.800;2023-11-21T09:26:12;21.02;;;15.25;;
19814;SDS011;10067;53.092;8.800;2023-11-21T09:28:41;19.23;;;14.30;;
19814;SDS011;10067;53.092;8.800;2023-11-21T09:31:11;22.98;;;15.05;;
19814;SDS011;10067;53.092;8.800;2023-11-21T09:33:39;21.25;;;15.80;;
19814;SDS011;10067;53.092;8.800;2023-11-21T09:36:10;18.00;;;13.63;;
19814;SDS011;10067;53.092;8.800;2023-11-21T09:38:37;19.67;;;14.57;;
19814;SDS011;10067;53.092;8.800;2023-11-21T09:41:04;17.58;;;13.75;;
19814;SDS011;10067;53.092;8.800;2023-11-21T09:43:32;17.80;;;13.77;;
19814;SDS011;10067;53.092;8.800;2023-11-21T09:45:59;18.52;;;12.38;;
19814;SDS011;10067;53.092;8.800;2023-11-21T09:48:28;16.05;;;12.32;;
19814;SDS011;10067;53.092;8.800;2023-11-21T09:50:57;19.48;;;13.35;;
19814;SDS011;10067;53.092;8.800;2023-11-21T09:53:24;15.25;;;12.40;;
19814;SDS011;10067;53.092;8.800;2023-11-21T09:55:53;19.08;;;12.98;;
19814;SDS011;10067;53.092;8.800;2023-11-21T09:58:20;18.02;;;12.73;;
19814;SDS011;10067;53.092;8.800;2023-11-21T10:00:48;18.38;;;13.18;;
19814;SDS011;10067;53.092;8.800;2023-11-21T10:03:15;16.80;;;12.48;;
19814;SDS011;10067;53.092;8.800;2023-11-21T10:05:42;16.52;;;12.15;;
19814;SDS011;10067;53.092;8.800;2023-11-21T10:08:11;17.65;;;12.07;;
19814;SDS011;10067;53.092;8.800;2023-11-21T10:10:37;17.48;;;12.40;;
19814;SDS011;10067;53.092;8.800;2023-11-21T10:13:06;20.02;;;15.35;;
19814;SDS011;10067;53.092;8.800;2023-11-21T10:15:35;18.95;;;12.77;;
19814;SDS011;10067;53.092;8.800;2023-11-21T10:18:02;17.30;;;13.38;;
19814;SDS011;10067;53.092;8.800;2023-11-21T10:20:28;19.75;;;12.20;;
19814;SDS011;10067;53.092;8.800;2023-11-21T10:22:55;20.50;;;12.77;;
19814;SDS011;10067;53.092;8.800;2023-11-21T10:25:23;25.20;;;12.52;;
19814;SDS011;10067;53.092;8.800;2023-11-21T10:27:55;18.65;;;12.65;;
19814;SDS011;10067;53.092;8.800;2023-11-21T10:30:24;18.98;;;13.00;;
19814;SDS011;10067;53.092;8.800;2023-11-21T10:32:56;17.20;;;13.18;;
19814;SDS011;10067;53.092;8.800;2023-11-21T10:35:24;16.48;;;13.20;;
19814;SDS011;10067;53.092;8.800;2023-11-21T10:37:56;21.15;;;14.75;;
19814;SDS011;10067;53.092;8.800;2023-11-21T10:40:27;17.38;;;12.90;;
19814;SDS011;10067;53.092;8.800;2023-11-21T10:42:54;15.93;;;11.63;;
19814;SDS011;10067;53.092;8.800;2023-11-21T10:45:23;15.20;;;11.15;;
19814;SDS011;10067;53.092;8.800;2023-11-21T10:47:49;18.77;;;13.50;;
19814;SDS011;10067;53.092;8.800;2023-11-21T10:50:18;18.00;;;11.57;;
19814;SDS011;10067;53.092;8.800;2023-11-21T10:52:45;14.13;;;11.20;;
19814;SDS011;10067;53.092;8.800;2023-11-21T10:55:16;16.20;;;11.13;;
19814;SDS011;10067;53.092;8.800;2023-11-21T10:57:43;15.80;;;12.02;;
19814;SDS011;10067;53.092;8.800;2023-11-21T11:00:11;17.02;;;11.15;;
19814;SDS011;10067;53.092;8.800;2023-11-21T11:02:38;15.57;;;12.45;;
19814;SDS011;10067;53.092;8.800;2023-11-21T11:05:05;15.15;;;11.52;;
19814;SDS011;10067;53.092;8.800;2023-11-21T11:07:36;17.50;;;10.40;;
19814;SDS011;10067;53.092;8.800;2023-11-21T11:10:04;18.20;;;11.20;;
19814;SDS011;10067;53.092;8.800;2023-11-21T11:12:33;16.45;;;12.48;;
19814;SDS011;10067;53.092;8.800;2023-11-21T11:15:02;18.27;;;13.43;;
19814;SDS011;10067;53.092;8.800;2023-11-21T11:17:30;16.67;;;11.18;;
19814;SDS011;10067;53.092;8.800;2023-11-21T11:19:57;14.98;;;11.57;;
19814;SDS011;10067;53.092;8.800;2023-11-21T11:22:28;13.48;;;11.50;;
19814;SDS011;10067;53.092;8.800;2023-11-21T11:25:03;19.27;;;12.10;;
19814;SDS011;10067;53.092;8.800;2023-11-21T11:27:40;11.90;;;10.02;;
19814;SDS011;10067;53.092;8.800;2023-11-21T11:30:15;15.20;;;10.63;;
19814;SDS011;10067;53.092;8.800;2023-11-21T11:32:43;12.23;;;9.70;;
19814;SDS011;10067;53.092;8.800;2023-11-21T11:35:17;12.65;;;10.25;;
19814;SDS011;10067;53.092;8.800;2023-11-21T11:37:45;13.55;;;9.80;;
19814;SDS011;10067;53.092;8.800;2023-11-21T11:40:12;15.88;;;10.32;;
19814;SDS011;10067;53.092;8.800;2023-11-21T11:42:38;13.13;;;10.25;;
19814;SDS011;10067;53.092;8.800;2023-11-21T11:45:18;12.68;;;9.75;;
19814;SDS011;10067;53.092;8.800;2023-11-21T11:47:45;12.40;;;10.10;;
19814;SDS011;10067;53.092;8.800;2023-11-21T11:50:13;12.27;;;9.68;;
19814;SDS011;10067;53.092;8.800;2023-11-21T11:52:42;10.18;;;8.57;;
19814;SDS011;10067;53.092;8.800;2023-11-21T11:55:10;11.68;;;8.82;;
19814;SDS011;10067;53.092;8.800;2023-11-21T11:57:37;10.57;;;8.27;;
19814;SDS011;10067;53.092;8.800;2023-11-21T12:00:11;10.60;;;8.20;;
19814;SDS011;10067;53.092;8.800;2023-11-21T12:02:43;14.68;;;9.07;;
19814;SDS011;10067;53.092;8.800;2023-11-21T12:05:10;12.82;;;8.82;;
19814;SDS011;10067;53.092;8.800;2023-11-21T12:10:24;12.05;;;8.48;;
19814;SDS011;10067;53.092;8.800;2023-11-21T12:12:51;15.32;;;9.20;;
19814;SDS011;10067;53.092;8.800;2023-11-21T12:15:18;13.98;;;8.38;;
19814;SDS011;10067;53.092;8.800;2023-11-21T12:17:46;12.02;;;8.70;;
19814;SDS011;10067;53.092;8.800;2023-11-21T12:20:13;14.60;;;8.80;;
19814;SDS011;10067;53.092;8.800;2023-11-21T12:22:43;13.80;;;8.95;;
19814;SDS011;10067;53.092;8.800;2023-11-21T12:25:09;14.60;;;9.80;;
19814;SDS011;10067;53.092;8.800;2023-11-21T12:27:41;14.98;;;11.98;;
19814;SDS011;10067;53.092;8.800;2023-11-21T12:30:07;13.85;;;9.63;;
19814;SDS011;10067;53.092;8.800;2023-11-21T12:32:38;17.27;;;9.68;;
19814;SDS011;10067;53.092;8.800;2023-11-21T12:35:07;13.35;;;8.77;;
19814;SDS011;10067;53.092;8.800;2023-11-21T12:37:35;10.57;;;7.63;;
19814;SDS011;10067;53.092;8.800;2023-11-21T12:40:04;9.05;;;6.70;;
19814;SDS011;10067;53.092;8.800;2023-11-21T12:42:31;8.48;;;6.57;;
19814;SDS011;10067;53.092;8.800;2023-11-21T12:45:08;10.07;;;7.47;;
19814;SDS011;10067;53.092;8.800;2023-11-21T12:47:39;9.40;;;7.00;;
19814;SDS011;10067;53.092;8.800;2023-11-21T12:50:07;9.00;;;7.13;;
19814;SDS011;10067;53.092;8.800;2023-11-21T12:52:39;10.07;;;6.82;;
19814;SDS011;10067;53.092;8.800;2023-11-21T12:55:06;9.85;;;5.18;;
19814;SDS011;10067;53.092;8.800;2023-11-21T12:57:34;6.78;;;5.53;;
19814;SDS011;10067;53.092;8.800;2023-11-21T13:00:04;7.38;;;5.55;;
19814;SDS011;10067;53.092;8.800;2023-11-21T13:02:37;8.75;;;5.50;;
19814;SDS011;10067;53.092;8.800;2023-11-21T13:05:08;10.65;;;5.35;;
19814;SDS011;10067;53.092;8.800;2023-11-21T13:07:43;7.78;;;5.45;;
19814;SDS011;10067;53.092;8.800;2023-11-21T13:10:12;7.43;;;5.30;;
19814;SDS011;10067;53.092;8.800;2023-11-21T13:12:42;8.73;;;5.45;;
19814;SDS011;10067;53.092;8.800;2023-11-21T13:15:09;7.07;;;4.90;;
19814;SDS011;10067;53.092;8.800;2023-11-21T13:17:36;8.10;;;4.57;;
19814;SDS011;10067;53.092;8.800;2023-11-21T13:20:03;5.63;;;4.28;;
19814;SDS011;10067;53.092;8.800;2023-11-21T13:22:34;5.47;;;4.13;;
19814;SDS011;10067;53.092;8.800;2023-11-21T13:25:00;4.57;;;4.13;;
19814;SDS011;10067;53.092;8.800;2023-11-21T13:27:32;7.60;;;4.10;;
19814;SDS011;10067;53.092;8.800;2023-11-21T13:29:59;5.03;;;3.35;;
19814;SDS011;10067;53.092;8.800;2023-11-21T13:32:26;8.65;;;3.95;;
19814;SDS011;10067;53.092;8.800;2023-11-21T13:34:52;5.63;;;4.53;;
19814;SDS011;10067;53.092;8.800;2023-11-21T13:37:19;4.90;;;4.30;;
19814;SDS011;10067;53.092;8.800;2023-11-21T13:39:49;7.43;;;4.85;;
19814;SDS011;10067;53.092;8.800;2023-11-21T13:42:15;11.07;;;4.97;;
19814;SDS011;10067;53.092;8.800;2023-11-21T13:44:42;7.40;;;4.65;;
19814;SDS011;10067;53.092;8.800;2023-11-21T13:47:11;8.48;;;4.93;;
19814;SDS011;10067;53.092;8.800;2023-11-21T13:49:38;10.73;;;4.93;;
19814;SDS011;10067;53.092;8.800;2023-11-21T13:52:06;9.05;;;4.55;;
19814;SDS011;10067;53.092;8.800;2023-11-21T13:54:32;6.43;;;4.25;;
19814;SDS011;10067;53.092;8.800;2023-11-21T13:57:00;10.00;;;4.93;;
19814;SDS011;10067;53.092;8.800;2023-11-21T13:59:28;10.00;;;4.43;;
19814;SDS011;10067;53.092;8.800;2023-11-21T14:01:55;8.43;;;4.88;;
19814;SDS011;10067;53.092;8.800;2023-11-21T14:04:25;8.52;;;5.35;;
19814;SDS011;10067;53.092;8.800;2023-11-21T14:07:11;12.38;;;4.97;;
19814;SDS011;10067;53.092;8.800;2023-11-21T14:09:47;11.68;;;4.90;;
19814;SDS011;10067;53.092;8.800;2023-11-21T14:12:16;6.53;;;4.57;;
19814;SDS011;10067;53.092;8.800;2023-11-21T14:14:42;5.72;;;4.03;;
19814;SDS011;10067;53.092;8.800;2023-11-21T14:17:10;5.00;;;4.50;;
19814;SDS011;10067;53.092;8.800;2023-11-21T14:19:36;7.07;;;4.40;;
19814;SDS011;10067;53.092;8.800;2023-11-21T14:22:05;6.50;;;4.47;;
19814;SDS011;10067;53.092;8.800;2023-11-21T14:24:32;6.78;;;4.32;;
19814;SDS011;10067;53.092;8.800;2023-11-21T14:26:59;9.85;;;4.55;;
19814;SDS011;10067;53.092;8.800;2023-11-21T14:29:29;4.63;;;4.15;;
19814;SDS011;10067;53.092;8.800;2023-11-21T14:31:56;4.93;;;3.95;;